Latest Weather Observations for Burnie Port

IDT60801

Issued at 6:02 pm EDT Thursday 18 December 2014 (issued every 30 minutes, with the page automatically refreshed every 10 minutes)

About weather observations | Map of weather stations | Latest weather observations for TAS | Other Formats
Station Details ID: 091344 Name: BURNIE NTC AWS Lat: -41.05 Lon: 145.91 Height: 0.0 m
Data from the previous 72 hours. | See also: Recent months for locations in Tasmania
Date/Time
EDT
Temp
°C
App
Temp
°C
Dew
Point
Rel
Hum
%
Delta-T
°C
Wind Press
QNH
hPa
Press
MSL
hPa
Rain
since 9 am
mm
Dir
 
Spd
km/h
Gust
km/h
Spd
kts
Gust
kts
18/06:00pm 15.9 - - - - WNW 20 32 11 17 1003.9 1003.9 -
18/05:30pm 15.1 - - - - NW 22 28 12 15 1003.8 1003.8 -
18/05:00pm 14.2 - - - - WNW 17 24 9 13 1003.7 1003.7 -
18/04:30pm 14.1 - - - - WNW 11 19 6 10 1003.7 1003.7 -
18/04:00pm 12.9 - - - - WNW 6 11 3 6 1003.4 1003.4 -
18/03:30pm 13.0 - - - - WNW 13 24 7 13 1003.9 1003.9 -
18/03:00pm 12.9 - - - - W 19 28 10 15 1003.7 1003.7 -
18/02:30pm 13.7 - - - - W 22 43 12 23 1003.4 1003.4 -
18/02:24pm 14.1 - - - - W 32 50 17 27 1003.3 1003.3 -
18/02:17pm 14.2 - - - - NW 39 50 21 27 1003.2 1003.2 -
18/02:00pm 16.0 - - - - NNW 33 39 18 21 1002.8 1002.8 -
18/01:30pm 16.1 - - - - NW 32 39 17 21 1003.0 1003.0 -
18/01:00pm 16.1 - - - - NNW 26 32 14 17 1003.3 1003.3 -
18/12:30pm 16.1 - - - - NNW 26 32 14 17 1003.5 1003.5 -
18/12:00pm 16.0 - - - - N 24 28 13 15 1003.4 1003.4 -
18/11:30am 16.0 - - - - N 26 32 14 17 1003.6 1003.6 -
18/11:00am 16.1 - - - - N 28 33 15 18 1003.7 1003.7 -
18/10:30am 16.1 - - - - N 28 35 15 19 1003.9 1003.9 -
18/10:00am 15.8 - - - - NNW 30 35 16 19 1004.2 1004.2 -
18/09:30am 15.9 - - - - N 30 37 16 20 1004.5 1004.5 -
18/09:00am 15.6 - - - - N 30 37 16 20 1004.6 1004.6 -
18/08:30am 15.6 - - - - NNW 26 32 14 17 1004.8 1004.8 -
18/08:00am 15.4 - - - - N 22 28 12 15 1004.8 1004.8 -
18/07:30am 15.4 - - - - N 24 28 13 15 1004.7 1004.7 -
18/07:00am 15.2 - - - - NNW 22 28 12 15 1004.7 1004.7 -
18/06:30am 15.1 - - - - NNW 24 28 13 15 1004.6 1004.6 -
18/06:00am 15.1 - - - - NNW 26 30 14 16 1004.7 1004.7 -
18/05:30am 15.1 - - - - NNW 19 30 10 16 1004.8 1004.8 -
18/05:00am 11.9 - - - - SSW 9 13 5 7 1005.0 1005.0 -
18/04:30am 11.3 - - - - SSW 9 11 5 6 1005.1 1005.1 -
18/04:00am 11.4 - - - - S 7 9 4 5 1005.2 1005.2 -
18/03:30am 11.2 - - - - S 6 9 3 5 1005.4 1005.4 -
18/03:00am 11.0 - - - - S 7 9 4 5 1005.5 1005.5 -
18/02:30am 11.2 - - - - S 7 9 4 5 1005.5 1005.5 -
18/02:00am 12.0 - - - - SW 7 9 4 5 1005.6 1005.6 -
18/01:30am 11.4 - - - - SSE 11 13 6 7 1005.8 1005.8 -
18/01:00am 12.4 - - - - SSW 7 9 4 5 1006.0 1006.0 -
18/12:30am 13.1 - - - - WSW 9 13 5 7 1006.1 1006.1 -
18/12:00am 13.2 - - - - WSW 11 15 6 8 1006.5 1006.5 -
 
Date/Time
EDT
Temp
°C
App
Temp
°C
Dew
Point
Rel
Hum
%
Delta-T
°C
Wind Press
QNH
hPa
Press
MSL
hPa
Rain
since 9 am
mm
Dir
 
Spd
km/h
Gust
km/h
Spd
kts
Gust
kts
17/11:30pm 13.4 - - - - WSW 9 13 5 7 1006.7 1006.7 -
17/11:00pm 13.9 - - - - WSW 9 15 5 8 1006.9 1006.9 -
17/10:30pm 14.1 - - - - W 11 17 6 9 1007.2 1007.2 -
17/10:00pm 14.6 - - - - W 11 19 6 10 1007.3 1007.3 -
17/09:30pm 14.8 - - - - W 13 20 7 11 1007.2 1007.2 -
17/09:00pm 15.3 - - - - W 11 15 6 8 1007.1 1007.1 -
17/08:30pm 15.8 - - - - W 13 20 7 11 1006.9 1006.9 -
17/08:00pm 16.2 - - - - W 17 26 9 14 1006.7 1006.7 -
17/07:30pm 16.9 - - - - W 17 24 9 13 1006.4 1006.4 -
17/07:00pm 16.8 - - - - W 17 26 9 14 1006.3 1006.3 -
17/06:30pm 16.9 - - - - WNW 19 33 10 18 1005.9 1005.9 -
17/06:00pm 16.7 - - - - W 19 32 10 17 1005.8 1005.8 -
17/05:30pm 17.1 - - - - W 20 35 11 19 1005.7 1005.7 -
17/05:00pm 16.8 - - - - W 22 33 12 18 1005.6 1005.6 -
17/04:30pm 17.5 - - - - W 19 33 10 18 1005.5 1005.5 -
17/04:00pm 17.3 - - - - WNW 17 30 9 16 1005.5 1005.5 -
17/03:30pm 16.4 - - - - WSW 20 32 11 17 1005.8 1005.8 -
17/03:00pm 16.6 - - - - W 13 26 7 14 1005.8 1005.8 -
17/02:30pm 15.7 - - - - W 22 37 12 20 1005.9 1005.9 -
17/02:00pm 16.3 - - - - NW 22 33 12 18 1005.4 1005.4 -
17/01:30pm 16.4 - - - - W 15 32 8 17 1005.7 1005.7 -
17/01:00pm 14.8 - - - - WNW 17 24 9 13 1005.8 1005.8 -
17/12:30pm 15.7 - - - - WSW 17 26 9 14 1005.7 1005.7 -
17/12:00pm 15.7 - - - - W 13 24 7 13 1005.7 1005.7 -
17/11:30am 15.0 - - - - W 17 30 9 16 1005.5 1005.5 -
17/11:00am 13.9 - - - - W 19 32 10 17 1005.5 1005.5 -
17/10:30am 13.8 - - - - SW 15 24 8 13 1005.2 1005.2 -
17/10:00am 13.8 - - - - WNW 19 33 10 18 1005.0 1005.0 -
17/09:30am 12.8 - - - - W 13 26 7 14 1005.1 1005.1 -
17/09:00am 12.9 - - - - WSW 13 22 7 12 1004.7 1004.7 -
17/08:30am 12.7 - - - - WSW 11 19 6 10 1004.6 1004.6 -
17/08:00am 12.3 - - - - W 9 17 5 9 1004.0 1004.0 -
17/07:30am 11.2 - - - - WNW 13 17 7 9 1003.6 1003.6 -
17/07:00am 11.0 - - - - W 6 9 3 5 1003.0 1003.0 -
17/06:30am 10.6 - - - - W 6 9 3 5 1002.6 1002.6 -
17/06:00am 10.3 - - - - W 9 15 5 8 1002.1 1002.1 -
17/05:30am 10.7 - - - - W 7 13 4 7 1001.4 1001.4 -
17/05:00am 10.7 - - - - W 6 15 3 8 1000.8 1000.8 -
17/04:30am 11.0 - - - - WSW 13 28 7 15 1000.1 1000.1 -
17/04:00am 11.0 - - - - W 13 20 7 11 999.9 999.9 -
17/03:30am 11.3 - - - - WSW 15 26 8 14 999.5 999.5 -
17/03:00am 11.4 - - - - W 13 20 7 11 999.2 999.2 -
17/02:30am 11.3 - - - - W 15 22 8 12 998.7 998.7 -
17/02:00am 11.5 - - - - W 19 30 10 16 998.2 998.2 -
17/01:30am 11.8 - - - - W 20 35 11 19 998.1 998.1 -
17/01:00am 12.2 - - - - W 19 39 10 21 997.6 997.6 -
17/12:30am 11.8 - - - - W 15 22 8 12 997.4 997.4 -
17/12:00am 11.9 - - - - WNW 11 19 6 10 997.3 997.3 -
 
Date/Time
EDT
Temp
°C
App
Temp
°C
Dew
Point
Rel
Hum
%
Delta-T
°C
Wind Press
QNH
hPa
Press
MSL
hPa
Rain
since 9 am
mm
Dir
 
Spd
km/h
Gust
km/h
Spd
kts
Gust
kts
16/11:30pm 12.0 - - - - W 20 28 11 15 996.9 996.9 -
16/11:00pm 12.4 - - - - WNW 19 30 10 16 996.4 996.4 -
16/10:30pm 12.5 - - - - W 20 37 11 20 995.4 995.4 -
16/10:00pm 12.6 - - - - WNW 17 28 9 15 994.9 994.9 -
16/09:30pm 12.5 - - - - WNW 19 33 10 18 994.0 994.0 -
16/09:00pm 12.7 - - - - W 20 32 11 17 993.2 993.2 -
16/08:30pm 13.0 - - - - W 19 32 10 17 992.5 992.5 -
16/08:13pm 13.2 - - - - W 28 48 15 26 992.3 992.3 -
16/08:00pm 14.2 - - - - W 26 39 14 21 992.0 992.0 -
16/07:30pm 14.5 - - - - W 24 33 13 18 991.3 991.3 -
16/07:00pm 15.4 - - - - WNW 20 35 11 19 990.9 990.9 -
16/06:30pm 14.6 - - - - NW 22 32 12 17 991.1 991.1 -
16/06:00pm 14.4 - - - - WNW 15 28 8 15 990.7 990.7 -
16/05:30pm 14.8 - - - - W 28 50 15 27 990.4 990.4 -
16/05:00pm 17.4 - - - - WNW 35 46 19 25 989.9 989.9 -
16/04:30pm 17.2 - - - - NW 41 50 22 27 989.7 989.7 -
16/04:00pm 17.1 - - - - NW 35 50 19 27 989.7 989.7 -
16/03:50pm 17.2 - - - - NW 30 50 16 27 989.8 989.8 -
16/03:30pm 17.9 - - - - NW 33 46 18 25 989.3 989.3 -
16/03:00pm 17.2 - - - - NW 37 50 20 27 989.7 989.7 -
16/02:35pm 16.8 - - - - NW 30 50 16 27 989.7 989.7 -
16/02:30pm 17.0 - - - - NW 33 50 18 27 989.7 989.7 -
16/02:00pm 17.0 - - - - NW 37 48 20 26 989.1 989.1 -
16/01:30pm 17.4 - - - - NW 35 43 19 23 990.4 990.4 -
16/01:00pm 17.9 - - - - NNW 20 26 11 14 990.6 990.6 -
16/12:30pm 18.2 - - - - NNW 9 15 5 8 990.7 990.7 -
16/12:00pm 18.4 - - - - E 6 7 3 4 990.6 990.6 -
16/11:30am 18.5 - - - - NE 6 9 3 5 991.4 991.4 -
16/11:00am 18.4 - - - - ESE 15 19 8 10 991.4 991.4 -
16/10:30am 18.3 - - - - ESE 19 26 10 14 991.5 991.5 -
16/10:00am 18.6 - - - - ESE 26 32 14 17 992.5 992.5 -
16/09:30am 18.6 - - - - ESE 22 28 12 15 993.4 993.4 -
16/09:00am 18.4 - - - - ESE 20 26 11 14 994.0 994.0 -
16/08:30am 18.2 - - - - ESE 15 22 8 12 994.1 994.1 -
16/08:00am 17.0 - - - - S 13 17 7 9 994.1 994.1 -
16/07:30am 16.1 - - - - S 19 20 10 11 994.3 994.3 -
16/07:00am 16.3 - - - - S 19 26 10 14 994.4 994.4 -
16/06:30am 15.4 - - - - S 19 24 10 13 994.8 994.8 -
16/06:00am 14.7 - - - - S 20 24 11 13 995.7 995.7 -
16/05:30am 14.4 - - - - S 17 19 9 10 996.5 996.5 -

Other Formats:

Comma delimited format used in spreadsheet applications
http://www.bom.gov.au/fwo/IDT60801/IDT60801.95963.axf

JavaScript Object Notation format (JSON) in row-major order
http://www.bom.gov.au/fwo/IDT60801/IDT60801.95963.json